TimeEDT,TemperatureF,Dew PointF,Humidity,Sea Level PressureIn,VisibilityMPH,Wind Direction,Wind SpeedMPH,Gust SpeedMPH,PrecipitationIn,Events,Conditions,WindDirDegrees,DateUTC
12:00 AM,53.6,44.8,72,29.71,-9999.0,SSE,1.2,-,N/A,,Unknown,150,2012-10-18 04:00:00
1:00 AM,58.8,42.6,55,29.69,-9999.0,SSE,4.6,-,N/A,,Unknown,160,2012-10-18 05:00:00
2:00 AM,58,41,41,29.67,,South,3.5,,,,,170,2012-10-18 06:00:00
2:00 AM,58.5,40.6,52,29.67,-9999.0,South,3.5,-,N/A,,Unknown,170,2012-10-18 06:00:00
3:00 AM,59.2,39.9,49,29.67,-9999.0,South,6.9,-,N/A,,Unknown,180,2012-10-18 07:00:00
4:00 AM,57.9,40.1,52,29.65,-9999.0,South,6.9,-,N/A,,Unknown,180,2012-10-18 08:00:00
5:00 AM,56.7,41.7,57,29.66,-9999.0,South,3.5,-,N/A,,Unknown,170,2012-10-18 09:00:00
6:00 AM,56.3,42.6,60,29.65,-9999.0,SSE,2.3,-,N/A,,Unknown,150,2012-10-18 10:00:00
7:00 AM,55.2,42.8,63,29.64,-9999.0,SSE,3.5,-,N/A,,Unknown,160,2012-10-18 11:00:00
8:00 AM,56,44,54,29.62,,South,5.8,,,,,170,2012-10-18 12:00:00
8:00 AM,55.9,44.1,64,29.62,-9999.0,South,5.8,-,N/A,,Unknown,170,2012-10-18 12:00:00
9:00 AM,59.2,44.8,59,29.62,-9999.0,South,10.4,-,N/A,,Unknown,180,2012-10-18 13:00:00
10:00 AM,61.2,45.1,56,29.62,-9999.0,South,11.5,21.9,N/A,,Unknown,190,2012-10-18 14:00:00
11:00 AM,63.7,45.1,51,29.60,-9999.0,South,9.2,19.6,N/A,,Unknown,180,2012-10-18 15:00:00
12:00 PM,65.1,44.6,47,29.60,-9999.0,SSW,12.7,21.9,N/A,,Unknown,200,2012-10-18 16:00:00
1:00 PM,64.8,44.8,48,29.60,-9999.0,South,8.1,18.4,N/A,,Unknown,190,2012-10-18 17:00:00
2:00 PM,67,45,34,29.59,,South,11.5,,,,,180,2012-10-18 18:00:00
2:00 PM,67.3,45.3,45,29.59,-9999.0,South,11.5,21.9,N/A,,Unknown,180,2012-10-18 18:00:00
3:00 PM,68.7,44.2,41,29.59,-9999.0,South,10.4,18.4,N/A,,Unknown,190,2012-10-18 19:00:00
4:00 PM,56.7,45.3,66,29.68,-9999.0,WSW,18.4,26.5,N/A,,Unknown,250,2012-10-18 20:00:00
5:00 PM,54.0,45.1,72,29.70,-9999.0,SW,9.2,-,N/A,,Unknown,230,2012-10-18 21:00:00
6:00 PM,54.5,45.7,72,29.70,-9999.0,SE,2.3,-,N/A,,Unknown,140,2012-10-18 22:00:00
7:00 PM,52.2,48.4,87,29.75,-9999.0,SSE,3.5,-,0.03,,Unknown,160,2012-10-18 23:00:00
8:00 PM,52,49,84,29.78,,SSE,4.6,,,,,160,2012-10-19 00:00:00
8:00 PM,51.6,48.6,89,29.78,-9999.0,SSE,4.6,-,0.12,,Unknown,160,2012-10-19 00:00:00
9:00 PM,50.7,47.7,89,29.79,-9999.0,South,8.1,-,0.20,,Unknown,170,2012-10-19 01:00:00
10:00 PM,50.5,47.5,89,29.76,-9999.0,SE,6.9,-,0.13,,Unknown,140,2012-10-19 02:00:00
11:00 PM,50.4,46.4,86,29.77,-9999.0,South,3.5,-,N/A,,Unknown,170,2012-10-19 03:00:00